Fenwick, WV

11:47 PM EDT on August 25, 2016 (GMT -0400)
The Family Center | | Change Station

Elev 2192 ft 38.22 °N, 80.53 °W | Updated 6 minutes ago

Clear
Clear
69.7 °F
Feels Like 69.7 °F
N
0.0
Wind Variable Wind from East
Gusts 0.0 mph

Today
High -- | Low -- °F
--% Chance of Precip.
Yesterday
High -- | Low -- °F
Precip. -- in
Pressure 30.19 in
Visibility 10.0 miles
Clouds Clear
Dew Point 68 °F
Humidity 95%
Rainfall 0.12 in
Snow Depth Not available.
6:46 AM 8:01 PM
Last Quarter, 39% visible
METAR KLWB 260335Z AUTO 00000KT 10SM CLR 21/20 A3019 RMK AO2 T02100200
Pressure 30.19 in
Visibility 10.0 miles
Clouds Clear
Dew Point 68 °F
Humidity 95%
Rainfall 0.12 in
Snow Depth Not available.
6:46 AM 8:01 PM
Last Quarter, 39% visible
METAR KLWB 260335Z AUTO 00000KT 10SM CLR 21/20 A3019 RMK AO2 T02100200
A tropical disturbance pushing toward the Bahamas, is expected to develop into a tropical depression or storm, and will likely target Florida and the Gulf Coast this weekend into next week.

Right now, the disturbance remains a broad area of low pressure pushing through the Dominican Republic and Haiti, headed toward the southeast Bahamas. Rainfall totals over 3 inches (with locally higher amounts) are expected in HispaƱiola, particularly over elevated terrain.

10-Day Weather Forecast

Almanac

Astronomy

Aug. 25, 2016 Rise Set
Actual Time
Civil Twilight
Nautical Twilight
Astronomical Twilight
Moon
Length of Visible Light
Length of Day
Tomorrow will be .
, % of the Moon is Illuminated

Today's Extremes

State Highs State Lows

Community

WunderPhotos

Upload Photos

1,935,057 photos uploaded!

WunderBlog® & News

Nearby

Air Quality

  Air Quality AQ Index Pollutant
Not available.

Snow Depth

Station Depth Elevation

Earthquake Activity

City Distance Mag. Time & Date
Minimum magnitude displayed is 2.5.

Coastal Water Temperatures

Place Temperature

Stations

Nearby Weather Stations

Station Location Temp. Windchill Dew Point Humidity Wind Precip. Elev Updated Type
                   

Watches & Warnings

There are currently no watches in effect.